createdAt,value
2023-03-14T00:01:50.174Z,85.76
2023-03-14T00:04:18.343Z,85.42
2023-03-14T00:06:47.891Z,85.10
2023-03-14T00:09:16.025Z,85.61
2023-03-14T00:11:44.132Z,85.39
2023-03-14T00:14:14.084Z,85.56
2023-03-14T00:16:42.362Z,85.32
2023-03-14T00:19:10.582Z,85.35
2023-03-14T00:21:38.542Z,85.30
2023-03-14T00:24:07.640Z,85.55
2023-03-14T00:26:35.696Z,85.74
2023-03-14T00:29:03.520Z,85.16
2023-03-14T00:31:32.939Z,85.04
2023-03-14T00:34:00.999Z,84.83
2023-03-14T00:36:28.823Z,84.98
2023-03-14T00:38:56.878Z,85.05
2023-03-14T00:41:25.795Z,84.63
2023-03-14T00:43:54.061Z,84.98
2023-03-14T00:46:22.118Z,84.45
2023-03-14T00:48:51.569Z,84.38
2023-03-14T00:51:19.733Z,84.50
2023-03-14T00:53:47.540Z,84.57
2023-03-14T00:56:16.651Z,83.82
2023-03-14T00:58:44.755Z,84.15
2023-03-14T01:01:15.330Z,84.47
2023-03-14T01:03:43.167Z,84.06
2023-03-14T01:06:15.519Z,84.13
2023-03-14T01:08:43.670Z,83.84
2023-03-14T01:11:13.356Z,84.39
2023-03-14T01:13:41.798Z,84.07
2023-03-14T01:16:11.560Z,84.18
2023-03-14T01:18:40.444Z,84.59
2023-03-14T01:21:14.704Z,84.29
2023-03-14T01:23:42.674Z,84.62
2023-03-14T01:26:12.378Z,84.19
2023-03-14T01:28:40.598Z,84.59
2023-03-14T01:31:10.037Z,84.86
2023-03-14T01:33:38.238Z,84.51
2023-03-14T01:36:06.808Z,84.30
2023-03-14T01:38:37.182Z,84.85
2023-03-14T01:41:05.767Z,84.46
2023-03-14T01:43:33.530Z,84.69
2023-03-14T01:46:21.383Z,84.88
2023-03-14T01:48:57.146Z,85.06
2023-03-14T01:51:30.721Z,85.04
2023-03-14T01:54:05.448Z,85.39
2023-03-14T01:56:33.781Z,85.52
2023-03-14T01:59:02.241Z,85.51
2023-03-14T02:01:30.869Z,85.88
2023-03-14T02:04:01.968Z,85.76
2023-03-14T02:06:36.884Z,86.19
2023-03-14T02:09:06.178Z,86.52
2023-03-14T02:11:34.075Z,86.30
2023-03-14T02:14:01.874Z,86.77
2023-03-14T02:16:29.773Z,86.93
2023-03-14T02:18:57.617Z,86.98
2023-03-14T02:21:34.079Z,87.09
2023-03-14T02:24:11.414Z,87.27
2023-03-14T02:26:41.206Z,87.24
2023-03-14T02:29:10.391Z,87.52
2023-03-14T02:31:39.452Z,87.13
2023-03-14T02:34:07.736Z,87.08
2023-03-14T02:36:35.746Z,87.19
2023-03-14T02:39:09.468Z,86.94
2023-03-14T02:41:37.242Z,86.97
2023-03-14T02:44:05.182Z,87.25
2023-03-14T02:46:34.365Z,86.99
2023-03-14T02:49:04.505Z,86.91
2023-03-14T02:51:32.272Z,86.70
2023-03-14T02:54:00.099Z,86.91
2023-03-14T02:56:28.020Z,86.44
2023-03-14T02:58:55.801Z,86.63
2023-03-14T03:01:23.602Z,86.35
2023-03-14T03:03:52.813Z,86.51
2023-03-14T03:06:20.627Z,86.27
2023-03-14T03:08:48.440Z,86.31
2023-03-14T03:11:16.213Z,86.40
2023-03-14T03:13:43.962Z,86.49
2023-03-14T03:16:14.527Z,85.98
2023-03-14T03:18:42.644Z,86.25
2023-03-14T03:21:11.759Z,85.96
2023-03-14T03:23:39.539Z,85.91
2023-03-14T03:26:08.010Z,86.15
2023-03-14T03:28:36.032Z,85.30
2023-03-14T03:31:09.665Z,85.67
2023-03-14T03:33:38.154Z,85.53
2023-03-14T03:36:06.618Z,85.11
2023-03-14T03:38:35.895Z,85.31
2023-03-14T03:41:05.758Z,85.05
2023-03-14T03:43:33.591Z,85.14
2023-03-14T03:46:05.286Z,85.00
2023-03-14T03:48:33.412Z,85.10
2023-03-14T03:51:01.194Z,85.17
2023-03-14T03:53:33.705Z,84.93
2023-03-14T03:56:03.280Z,85.23
2023-03-14T03:58:31.261Z,85.14
2023-03-14T04:00:59.090Z,85.09
2023-03-14T04:03:27.242Z,84.78
2023-03-14T04:06:02.170Z,84.75
2023-03-14T04:08:30.084Z,84.87
2023-03-14T04:10:59.197Z,84.30
2023-03-14T04:13:28.924Z,84.17
2023-03-14T04:15:57.323Z,84.32
2023-03-14T04:18:25.816Z,84.08
2023-03-14T04:20:54.677Z,83.81
2023-03-14T04:23:22.770Z,84.04
2023-03-14T04:25:52.551Z,83.92
2023-03-14T04:28:20.644Z,83.89
2023-03-14T04:30:49.783Z,83.65
2023-03-14T04:33:18.429Z,83.65
2023-03-14T04:35:46.587Z,84.14
2023-03-14T04:38:15.224Z,83.88
2023-03-14T04:40:43.201Z,84.07
2023-03-14T04:43:12.526Z,83.72
2023-03-14T04:45:43.516Z,84.23
2023-03-14T04:48:13.503Z,84.44
2023-03-14T04:50:41.323Z,84.59
2023-03-14T04:53:09.091Z,84.60
2023-03-14T04:55:36.898Z,84.71
2023-03-14T04:58:04.689Z,84.56
2023-03-14T05:00:32.837Z,84.84
2023-03-14T05:03:00.640Z,84.76
2023-03-14T05:05:29.828Z,84.65
2023-03-14T05:07:57.619Z,84.59
2023-03-14T05:10:26.586Z,84.96
2023-03-14T05:12:54.326Z,84.65
2023-03-14T05:15:22.075Z,85.01
2023-03-14T05:17:50.185Z,84.99
2023-03-14T05:20:18.192Z,85.02
2023-03-14T05:22:47.307Z,85.26
2023-03-14T05:25:15.311Z,85.07
2023-03-14T05:27:43.047Z,85.15
2023-03-14T05:30:12.288Z,84.79
2023-03-14T05:32:40.088Z,85.12
2023-03-14T05:35:08.277Z,85.29
2023-03-14T05:37:36.620Z,85.02
2023-03-14T05:40:07.865Z,85.20
2023-03-14T05:42:35.617Z,85.02
2023-03-14T05:45:03.390Z,84.84
2023-03-14T05:47:31.119Z,84.79
2023-03-14T05:49:58.887Z,84.73
2023-03-14T05:52:26.663Z,84.69
2023-03-14T05:54:54.403Z,84.75
2023-03-14T05:57:23.528Z,84.65
2023-03-14T05:59:51.325Z,84.47
2023-03-14T06:02:35.033Z,83.93
2023-03-14T06:05:03.095Z,83.63
2023-03-14T06:07:30.856Z,83.58
2023-03-14T06:09:59.526Z,83.36
2023-03-14T06:12:29.331Z,83.54
2023-03-14T06:14:57.154Z,83.54
2023-03-14T06:17:24.937Z,83.34
2023-03-14T06:19:52.731Z,83.34
2023-03-14T06:22:20.667Z,83.18
2023-03-14T06:24:48.426Z,83.23
2023-03-14T06:27:16.197Z,83.22
2023-03-14T06:29:45.321Z,83.23
2023-03-14T06:32:13.109Z,83.47
2023-03-14T06:34:41.799Z,83.29
2023-03-14T06:37:09.596Z,83.31
2023-03-14T06:39:38.615Z,83.46
2023-03-14T06:42:06.486Z,83.77
2023-03-14T06:44:34.547Z,83.67
2023-03-14T06:47:03.865Z,84.06
2023-03-14T06:49:31.665Z,84.08
2023-03-14T06:51:59.434Z,84.16
2023-03-14T06:54:27.199Z,83.79
2023-03-14T06:56:54.970Z,83.98
2023-03-14T06:59:22.806Z,83.89
2023-03-14T07:01:51.826Z,84.16
2023-03-14T07:04:21.094Z,84.01
2023-03-14T07:06:48.943Z,84.23
2023-03-14T07:09:18.091Z,84.17
2023-03-14T07:11:46.207Z,84.23
2023-03-14T07:14:14.203Z,84.25
2023-03-14T07:16:41.951Z,84.51
2023-03-14T07:19:09.764Z,84.53
2023-03-14T07:21:39.018Z,84.83
2023-03-14T07:24:07.131Z,84.57
2023-03-14T07:26:35.117Z,84.79
2023-03-14T07:29:04.224Z,85.14
2023-03-14T07:31:32.510Z,85.05
2023-03-14T07:34:00.341Z,85.49
2023-03-14T07:36:28.169Z,85.18
2023-03-14T07:38:57.305Z,85.24
2023-03-14T07:41:25.105Z,85.70
2023-03-14T07:43:52.934Z,85.84
2023-03-14T07:46:20.837Z,85.96
2023-03-14T07:48:48.682Z,85.68
2023-03-14T07:51:16.528Z,85.93
2023-03-14T07:53:45.182Z,86.04
2023-03-14T07:56:14.338Z,85.96
2023-03-14T07:58:42.088Z,85.91
2023-03-14T08:01:09.989Z,86.16
2023-03-14T08:03:37.775Z,86.32
2023-03-14T08:06:05.814Z,86.47
2023-03-14T08:08:33.612Z,86.54
2023-03-14T08:11:05.295Z,86.64
2023-03-14T08:13:34.719Z,86.85
2023-03-14T08:16:02.610Z,86.67
2023-03-14T08:18:30.531Z,86.80
2023-03-14T08:20:59.035Z,86.74
2023-03-14T08:23:26.924Z,86.63
2023-03-14T08:25:54.758Z,86.83
2023-03-14T08:28:22.555Z,86.63
2023-03-14T08:30:51.741Z,86.64
2023-03-14T08:33:19.551Z,86.57
2023-03-14T08:35:47.365Z,86.50
2023-03-14T08:38:15.474Z,86.70
2023-03-14T08:40:43.301Z,86.89
2023-03-14T08:43:11.058Z,86.86
2023-03-14T08:45:39.014Z,87.03
2023-03-14T08:48:08.310Z,87.09
2023-03-14T08:50:36.130Z,87.03
2023-03-14T08:53:04.126Z,87.04
2023-03-14T08:55:32.035Z,87.52
2023-03-14T08:57:59.915Z,87.36
2023-03-14T09:00:27.956Z,87.58
2023-03-14T09:02:55.805Z,87.82
2023-03-14T09:05:24.989Z,88.13
2023-03-14T09:07:52.758Z,88.11
2023-03-14T09:10:20.780Z,88.15
2023-03-14T09:12:48.571Z,88.24
2023-03-14T09:15:16.450Z,88.30
2023-03-14T09:17:44.904Z,88.40
2023-03-14T09:20:15.064Z,88.35
2023-03-14T09:22:44.282Z,88.12
2023-03-14T09:25:12.773Z,88.65
2023-03-14T09:27:40.559Z,88.43
2023-03-14T09:30:09.590Z,88.39
2023-03-14T09:32:37.372Z,88.38
2023-03-14T09:35:05.540Z,88.67
2023-03-14T09:37:33.328Z,88.59
2023-03-14T09:40:06.787Z,88.33
2023-03-14T09:42:34.969Z,88.06
2023-03-14T09:45:06.706Z,88.25
2023-03-14T09:47:35.799Z,88.29
2023-03-14T09:50:05.009Z,87.91
2023-03-14T09:52:35.041Z,88.14
2023-03-14T09:55:06.568Z,88.25
2023-03-14T09:57:36.423Z,87.50
2023-03-14T10:00:14.789Z,87.33
2023-03-14T10:02:46.989Z,87.22
2023-03-14T10:05:17.655Z,87.30
2023-03-14T10:07:45.447Z,87.24
2023-03-14T10:10:18.522Z,86.92
2023-03-14T10:12:48.390Z,86.96
2023-03-14T10:15:19.331Z,86.81
2023-03-14T10:17:49.982Z,86.35
2023-03-14T10:20:36.871Z,86.51
2023-03-14T10:23:06.922Z,86.39
2023-03-14T10:25:37.624Z,86.19
2023-03-14T10:28:06.285Z,86.11
2023-03-14T10:30:45.368Z,86.30
2023-03-14T10:33:16.758Z,85.94
2023-03-14T10:35:45.100Z,85.92
2023-03-14T10:38:15.596Z,86.49
2023-03-14T10:40:50.371Z,86.02
2023-03-14T10:43:22.299Z,86.41
2023-03-14T10:45:54.264Z,86.15
2023-03-14T10:48:23.939Z,85.84
2023-03-14T10:50:57.589Z,85.69
2023-03-14T10:53:27.650Z,85.85
2023-03-14T10:55:58.115Z,86.08
2023-03-14T10:58:27.584Z,86.02
2023-03-14T11:01:04.826Z,86.23
2023-03-14T11:03:34.280Z,85.90
2023-03-14T11:06:08.491Z,85.86
2023-03-14T11:08:41.124Z,85.51
2023-03-14T11:11:16.781Z,85.21
2023-03-14T11:13:54.462Z,84.52
2023-03-14T11:16:25.824Z,84.84
2023-03-14T11:19:05.062Z,84.95
2023-03-14T11:21:38.793Z,84.76
2023-03-14T11:24:16.444Z,84.57
2023-03-14T11:26:51.527Z,84.41
2023-03-14T11:29:23.690Z,83.84
2023-03-14T11:31:51.530Z,84.13
2023-03-14T11:34:25.593Z,84.30
2023-03-14T11:36:55.394Z,83.33
2023-03-14T11:39:23.364Z,82.41
2023-03-14T11:41:54.304Z,81.45
2023-03-14T11:44:24.886Z,81.55
2023-03-14T11:46:55.280Z,80.95
2023-03-14T11:49:32.901Z,80.16
2023-03-14T11:52:04.056Z,79.96
2023-03-14T11:54:36.830Z,80.04
2023-03-14T11:57:07.932Z,79.99
2023-03-14T11:59:44.237Z,80.32
2023-03-14T12:02:22.082Z,78.97
2023-03-14T12:04:56.984Z,78.63
2023-03-14T12:07:32.293Z,78.22
2023-03-14T12:10:00.122Z,76.78
2023-03-14T12:12:30.117Z,77.08
2023-03-14T12:14:59.851Z,76.25
2023-03-14T12:17:30.002Z,76.41
2023-03-14T12:20:08.365Z,75.16
2023-03-14T12:22:37.592Z,73.76
2023-03-14T12:25:09.163Z,72.82
2023-03-14T12:27:49.945Z,71.03
2023-03-14T12:30:28.430Z,71.98
2023-03-14T12:33:21.933Z,71.22
2023-03-14T12:35:50.900Z,71.13
2023-03-14T12:38:23.977Z,69.91
2023-03-14T12:40:59.390Z,71.83
2023-03-14T12:43:30.247Z,70.77
2023-03-14T12:46:17.772Z,71.07
2023-03-14T12:48:47.786Z,71.32
2023-03-14T12:51:16.803Z,71.78
2023-03-14T12:54:14.846Z,71.73
2023-03-14T12:56:57.446Z,72.02
2023-03-14T12:59:33.875Z,72.12
2023-03-14T13:02:04.140Z,72.12
2023-03-14T13:04:39.816Z,71.83
2023-03-14T13:07:13.759Z,71.04
2023-03-14T13:10:01.650Z,71.26
2023-03-14T13:12:33.374Z,71.43
2023-03-14T13:15:03.797Z,71.12
2023-03-14T13:17:36.900Z,69.39
2023-03-14T13:20:12.403Z,68.60
2023-03-14T13:22:40.164Z,68.40
2023-03-14T13:25:11.554Z,67.86
2023-03-14T13:27:39.924Z,66.99
2023-03-14T13:30:17.512Z,68.61
2023-03-14T13:32:47.613Z,69.48
2023-03-14T13:35:24.504Z,70.33
2023-03-14T13:38:11.087Z,70.71
2023-03-14T13:40:39.721Z,70.34
2023-03-14T13:43:15.030Z,70.75
2023-03-14T13:45:53.704Z,69.93
2023-03-14T13:48:22.183Z,69.17
2023-03-14T13:50:58.501Z,70.04
2023-03-14T13:53:26.812Z,70.38
2023-03-14T13:55:55.252Z,71.28
2023-03-14T13:58:26.209Z,72.32
2023-03-14T14:01:12.760Z,73.02
2023-03-14T14:03:42.349Z,71.75
2023-03-14T14:06:29.246Z,71.48
2023-03-14T14:08:57.745Z,72.04
2023-03-14T14:11:47.160Z,72.32
2023-03-14T14:14:22.789Z,73.37
2023-03-14T14:16:53.673Z,72.89
2023-03-14T14:19:24.420Z,72.45
2023-03-14T14:21:52.373Z,71.90
2023-03-14T14:24:20.250Z,71.55
2023-03-14T14:26:49.864Z,71.74
2023-03-14T14:29:27.655Z,72.94
2023-03-14T14:32:05.000Z,74.93
2023-03-14T14:34:41.035Z,75.97
2023-03-14T14:37:20.423Z,76.97
2023-03-14T14:39:48.295Z,77.25
2023-03-14T14:42:17.919Z,76.89
2023-03-14T14:44:45.961Z,77.05
2023-03-14T14:47:19.267Z,78.54
2023-03-14T14:49:47.225Z,78.49
2023-03-14T14:52:16.440Z,79.13
2023-03-14T14:54:49.645Z,78.83
2023-03-14T14:57:22.741Z,80.18
2023-03-14T14:59:53.625Z,80.90
2023-03-14T15:02:36.286Z,81.46
2023-03-14T15:05:04.160Z,81.93
2023-03-14T15:07:32.109Z,82.11
2023-03-14T15:10:00.237Z,82.11
2023-03-14T15:12:28.012Z,82.40
2023-03-14T15:14:58.377Z,82.96
2023-03-14T15:17:26.394Z,83.09
2023-03-14T15:19:56.549Z,83.13
2023-03-14T15:22:24.458Z,83.22
2023-03-14T15:24:52.271Z,83.44
2023-03-14T15:27:20.395Z,83.23
2023-03-14T15:29:48.164Z,83.58
2023-03-14T15:32:17.903Z,83.96
2023-03-14T15:34:45.672Z,83.93
2023-03-14T15:37:16.744Z,83.69
2023-03-14T15:39:44.698Z,84.26
2023-03-14T15:42:12.547Z,84.24
2023-03-14T15:44:40.991Z,84.28
2023-03-14T15:47:10.792Z,84.23
2023-03-14T15:49:38.717Z,84.70
2023-03-14T15:52:08.602Z,84.67
2023-03-14T15:54:37.798Z,84.60
2023-03-14T15:57:07.635Z,84.74
2023-03-14T15:59:36.386Z,84.41
2023-03-14T16:02:04.178Z,84.23
2023-03-14T16:04:31.929Z,84.23
2023-03-14T16:06:59.686Z,83.91
2023-03-14T16:09:27.995Z,84.25
2023-03-14T16:11:57.152Z,84.50
2023-03-14T16:14:25.249Z,84.50
2023-03-14T16:16:54.188Z,84.55
2023-03-14T16:19:22.019Z,84.82
2023-03-14T16:21:52.055Z,84.43
2023-03-14T16:24:20.151Z,84.67
2023-03-14T16:26:48.825Z,84.93
2023-03-14T16:29:18.104Z,85.47
2023-03-14T16:31:45.955Z,84.99
2023-03-14T16:34:14.232Z,85.08
2023-03-14T16:36:41.973Z,85.38
2023-03-14T16:39:09.888Z,85.83
2023-03-14T16:41:37.651Z,85.30
2023-03-14T16:44:05.387Z,85.59
2023-03-14T16:46:36.346Z,86.00
2023-03-14T16:49:04.576Z,85.69
2023-03-14T16:51:32.506Z,86.15
2023-03-14T16:54:00.240Z,85.92
2023-03-14T16:56:28.109Z,86.73
2023-03-14T16:58:55.845Z,85.97
2023-03-14T17:01:23.858Z,86.63
2023-03-14T17:03:53.679Z,86.31
2023-03-14T17:06:24.013Z,86.73
2023-03-14T17:08:52.077Z,86.31
2023-03-14T17:11:20.157Z,86.18
2023-03-14T17:13:48.196Z,86.42
2023-03-14T17:16:16.123Z,86.44
2023-03-14T17:18:43.960Z,86.15
2023-03-14T17:21:13.259Z,86.21
2023-03-14T17:23:41.140Z,86.16
2023-03-14T17:26:08.951Z,85.89
2023-03-14T17:28:37.249Z,86.27
2023-03-14T17:31:07.082Z,86.22
2023-03-14T17:33:35.272Z,85.56
2023-03-14T17:36:03.074Z,86.01
2023-03-14T17:38:32.520Z,85.99
2023-03-14T17:41:00.280Z,86.00
2023-03-14T17:43:28.153Z,85.38
2023-03-14T17:45:59.962Z,85.80
2023-03-14T17:48:27.944Z,85.50
2023-03-14T17:50:58.379Z,85.48
2023-03-14T17:53:27.901Z,85.87
2023-03-14T17:55:57.070Z,85.88
2023-03-14T17:58:24.946Z,85.59
2023-03-14T18:00:52.741Z,85.65
2023-03-14T18:03:22.411Z,85.72
2023-03-14T18:05:50.236Z,85.59
2023-03-14T18:08:17.986Z,85.86
2023-03-14T18:10:45.741Z,85.67
2023-03-14T18:13:14.994Z,85.17
2023-03-14T18:15:42.775Z,85.14
2023-03-14T18:18:10.591Z,85.46
2023-03-14T18:20:38.317Z,85.26
2023-03-14T18:23:07.127Z,85.04
2023-03-14T18:25:34.869Z,85.15
2023-03-14T18:28:02.722Z,84.79
2023-03-14T18:30:31.825Z,84.43
2023-03-14T18:32:59.686Z,84.01
2023-03-14T18:35:27.457Z,84.36
2023-03-14T18:37:55.242Z,83.64
2023-03-14T18:40:23.010Z,84.17
2023-03-14T18:42:50.759Z,84.48
2023-03-14T18:45:18.485Z,84.02
2023-03-14T18:47:47.598Z,84.03
2023-03-14T18:50:15.335Z,84.07
2023-03-14T18:52:43.101Z,84.11
2023-03-14T18:55:11.964Z,84.37
2023-03-14T18:57:39.733Z,84.53
2023-03-14T19:00:12.593Z,85.13
2023-03-14T19:02:40.784Z,84.60
2023-03-14T19:05:10.535Z,84.74
2023-03-14T19:07:38.461Z,84.21
2023-03-14T19:10:07.153Z,83.90
2023-03-14T19:12:34.969Z,84.22
2023-03-14T19:15:05.974Z,83.91
2023-03-14T19:17:33.927Z,83.86
2023-03-14T19:20:01.854Z,83.08
2023-03-14T19:22:32.437Z,83.93
2023-03-14T19:25:00.400Z,83.25
2023-03-14T19:27:28.229Z,83.48
2023-03-14T19:29:56.021Z,82.96
2023-03-14T19:32:23.778Z,83.18
2023-03-14T19:34:51.679Z,83.60
2023-03-14T19:37:19.427Z,83.03
2023-03-14T19:39:48.561Z,83.57
2023-03-14T19:42:16.357Z,83.32
2023-03-14T19:44:44.184Z,83.06
2023-03-14T19:47:11.949Z,83.49
2023-03-14T19:49:39.798Z,82.84
2023-03-14T19:52:07.593Z,83.80
2023-03-14T19:54:35.500Z,83.80
2023-03-14T19:57:05.955Z,83.06
2023-03-14T19:59:33.867Z,83.18
2023-03-14T20:02:02.028Z,84.07
2023-03-14T20:04:29.958Z,83.99
2023-03-14T20:06:57.728Z,84.11
2023-03-14T20:09:25.895Z,83.39
2023-03-14T20:11:53.834Z,84.42
2023-03-14T20:14:23.239Z,83.94
2023-03-14T20:16:51.094Z,84.55
2023-03-14T20:19:20.180Z,84.23
2023-03-14T20:21:52.263Z,83.23
2023-03-14T20:24:20.675Z,83.60
2023-03-14T20:26:48.579Z,83.21
2023-03-14T20:29:16.615Z,82.56
2023-03-14T20:31:46.033Z,81.75
2023-03-14T20:34:13.926Z,81.83
2023-03-14T20:36:44.995Z,81.66
2023-03-14T20:39:14.089Z,81.50
2023-03-14T20:41:42.366Z,81.67
2023-03-14T20:44:11.465Z,82.20
2023-03-14T20:46:39.672Z,81.60
2023-03-14T20:49:09.189Z,81.73
2023-03-14T20:51:37.316Z,81.80
2023-03-14T20:54:05.474Z,81.64
2023-03-14T20:56:33.264Z,81.75
2023-03-14T20:59:01.148Z,82.48
2023-03-14T21:01:29.164Z,82.56
2023-03-14T21:03:56.990Z,82.18
2023-03-14T21:06:26.577Z,82.30
2023-03-14T21:08:54.355Z,82.25
2023-03-14T21:11:22.141Z,82.55
2023-03-14T21:13:50.005Z,83.01
2023-03-14T21:16:17.796Z,83.17
2023-03-14T21:18:45.678Z,82.44
2023-03-14T21:21:14.375Z,82.58
2023-03-14T21:23:43.585Z,83.38
2023-03-14T21:26:11.435Z,83.22
2023-03-14T21:28:39.230Z,82.91
2023-03-14T21:31:07.829Z,82.54
2023-03-14T21:33:35.907Z,83.28
2023-03-14T21:36:08.173Z,82.63
2023-03-14T21:38:36.255Z,82.91
2023-03-14T21:41:07.765Z,83.59
2023-03-14T21:43:35.912Z,83.06
2023-03-14T21:46:04.148Z,82.73
2023-03-14T21:48:32.165Z,82.83
2023-03-14T21:51:00.055Z,83.34
2023-03-14T21:53:29.978Z,82.61
2023-03-14T21:55:58.758Z,82.71
2023-03-14T21:58:28.171Z,83.00
2023-03-14T22:01:03.150Z,83.02
2023-03-14T22:03:34.022Z,82.61
2023-03-14T22:06:02.984Z,82.53
2023-03-14T22:08:31.209Z,82.52
2023-03-14T22:10:59.158Z,82.24
2023-03-14T22:13:28.523Z,82.32
2023-03-14T22:15:56.462Z,82.77
2023-03-14T22:18:25.417Z,81.90
2023-03-14T22:20:53.339Z,82.38
2023-03-14T22:23:22.211Z,82.55
2023-03-14T22:25:50.566Z,81.80
2023-03-14T22:28:19.753Z,82.19
2023-03-14T22:30:49.585Z,82.25
2023-03-14T22:33:18.188Z,82.17
2023-03-14T22:35:48.923Z,82.01
2023-03-14T22:38:16.817Z,81.98
2023-03-14T22:40:44.659Z,81.84
2023-03-14T22:43:12.592Z,81.41
2023-03-14T22:45:40.448Z,82.03
2023-03-14T22:48:10.069Z,81.36
2023-03-14T22:50:39.770Z,81.23
2023-03-14T22:53:07.735Z,81.72
2023-03-14T22:55:35.670Z,80.90
2023-03-14T22:58:03.691Z,81.30
2023-03-14T23:00:31.962Z,81.69
2023-03-14T23:03:02.677Z,81.32
2023-03-14T23:05:31.866Z,81.43
2023-03-14T23:07:59.669Z,81.81
2023-03-14T23:10:27.450Z,81.48
2023-03-14T23:12:57.728Z,80.99
2023-03-14T23:15:25.958Z,81.55
2023-03-14T23:17:54.038Z,80.92
2023-03-14T23:20:21.860Z,80.64
2023-03-14T23:22:51.020Z,81.28
2023-03-14T23:25:19.286Z,80.48
2023-03-14T23:27:47.375Z,81.25
2023-03-14T23:30:15.916Z,80.46
2023-03-14T23:32:43.985Z,79.44
2023-03-14T23:35:12.603Z,79.84
2023-03-14T23:37:40.387Z,80.63
2023-03-14T23:40:11.421Z,80.21
2023-03-14T23:42:39.577Z,80.41
2023-03-14T23:45:08.454Z,80.12
2023-03-14T23:47:36.238Z,80.75
2023-03-14T23:50:04.232Z,80.44
2023-03-14T23:52:31.987Z,81.43
2023-03-14T23:54:59.757Z,81.77
2023-03-14T23:57:29.102Z,81.15
2023-03-14T23:59:56.873Z,81.27
